Time;durP1;ratioP1;P1;durP2;ratioP2;P2;SDS_P1;SDS_P2;PMS_P1;PMS_P2;Temp;Humidity;BMP_temperature;BMP_pressure;BME280_temperature;BME280_humidity;BME280_pressure;Samples;Min_cycle;Max_cycle;Signal;HPM_P1;HPM_P2
2021/11/17 02:27:39;;;;;;;17.55;8.30;;;;;;;4.18;87.17;96582.34;5087594;28;20058;-71
2021/11/17 02:30:19;;;;;;;15.85;7.63;;;;;;;4.20;86.34;96580.19;5087124;28;20050;-71
2021/11/17 02:32:59;;;;;;;15.40;7.80;;;;;;;4.13;85.68;96587.75;5087412;28;20043;-71
2021/11/17 02:35:51;;;;;;;13.43;6.80;;;;;;;4.11;84.88;96584.50;5087322;28;20105;-71
2021/11/17 02:38:32;;;;;;;14.00;7.38;;;;;;;4.05;84.70;96590.97;5084771;28;20051;-71
2021/11/17 02:41:17;;;;;;;14.18;7.28;;;;;;;4.01;85.13;96584.50;5087575;28;20419;-71
2021/11/17 02:43:58;;;;;;;14.10;8.02;;;;;;;4.05;84.64;96590.97;5086904;28;20048;-71
2021/11/17 02:46:41;;;;;;;14.35;6.82;;;;;;;4.04;83.84;96579.38;5086635;28;20423;-71
2021/11/17 02:49:20;;;;;;;13.93;7.18;;;;;;;4.10;84.66;96582.88;5087660;28;20056;-71
2021/11/17 02:51:59;;;;;;;14.57;7.22;;;;;;;4.14;84.17;96583.97;5086285;28;20044;-71
2021/11/17 02:54:42;;;;;;;12.68;6.75;;;;;;;4.19;84.12;96583.97;5086817;28;20343;-71
2021/11/17 02:57:25;;;;;;;12.43;6.65;;;;;;;4.24;83.42;96586.66;5086710;28;20673;-71
2021/11/17 03:00:07;;;;;;;11.13;6.10;;;;;;;4.26;83.14;96587.19;5086243;28;20048;-71
2021/11/17 03:02:52;;;;;;;11.27;6.13;;;;;;;4.31;82.65;96584.47;5087491;28;20044;-71
2021/11/17 03:05:34;;;;;;;11.98;6.13;;;;;;;4.31;82.96;96587.19;5086564;28;20106;-71
2021/11/17 03:08:15;;;;;;;11.10;6.05;;;;;;;4.35;82.62;96592.84;5087305;28;20063;-71
2021/11/17 03:11:05;;;;;;;11.55;6.35;;;;;;;4.37;81.73;96591.47;5080576;28;20074;-71
2021/11/17 03:13:50;;;;;;;11.02;6.43;;;;;;;4.32;81.59;96591.47;5095210;28;20051;-71
2021/11/17 03:16:30;;;;;;;10.13;5.30;;;;;;;4.37;81.87;96593.38;5107254;28;20097;-71
2021/11/17 03:19:11;;;;;;;10.60;5.10;;;;;;;4.37;81.92;96591.47;5107372;28;20047;-71
2021/11/17 03:21:51;;;;;;;9.50;4.80;;;;;;;4.35;81.52;96588.25;5106464;28;20032;-71
2021/11/17 03:24:30;;;;;;;9.32;5.35;;;;;;;4.35;81.51;96599.03;5107202;28;20051;-71
2021/11/17 03:27:14;;;;;;;10.63;5.75;;;;;;;4.32;81.17;96591.47;5106483;28;20043;-71
2021/11/17 03:30:11;;;;;;;9.88;5.38;;;;;;;4.32;81.71;96588.78;5107474;28;20048;-71
2021/11/17 03:32:54;;;;;;;10.75;6.45;;;;;;;4.37;82.00;96594.16;5071433;28;20509;-72
2021/11/17 03:35:41;;;;;;;10.55;5.80;;;;;;;4.41;81.87;96597.94;5086242;28;20051;-71
2021/11/17 03:38:30;;;;;;;10.57;5.47;;;;;;;4.38;81.59;96597.66;5087034;28;20059;-71
2021/11/17 03:41:27;;;;;;;12.20;6.15;;;;;;;4.34;81.79;96599.31;5079566;28;20055;-71
2021/11/17 03:44:16;;;;;;;11.48;6.40;;;;;;;4.30;82.03;96601.75;5066943;28;20044;-71
2021/11/17 03:47:03;;;;;;;10.55;6.28;;;;;;;4.29;82.29;96600.13;5070784;28;20048;-71
2021/11/17 03:49:43;;;;;;;11.07;6.18;;;;;;;4.33;82.17;96601.22;5069422;28;20566;-71
2021/11/17 03:52:28;;;;;;;13.23;6.72;;;;;;;4.35;81.79;96601.72;5068124;28;20059;-71
2021/11/17 03:55:19;;;;;;;13.05;7.15;;;;;;;4.31;82.24;96610.63;5070079;28;20048;-71
2021/11/17 03:57:57;;;;;;;14.27;7.15;;;;;;;4.35;82.14;96607.13;5069405;28;20040;-71
2021/11/17 04:01:02;;;;;;;13.80;7.55;;;;;;;4.39;81.76;96613.59;5069975;28;20095;-71
2021/11/17 04:03:47;;;;;;;13.50;7.13;;;;;;;4.40;81.55;96609.00;5059195;28;20044;-71
2021/11/17 04:06:27;;;;;;;14.60;8.27;;;;;;;4.38;82.08;96617.34;5069089;28;20056;-71
2021/11/17 04:09:06;;;;;;;13.32;7.75;;;;;;;4.39;82.14;96619.00;5070445;28;20060;-71
2021/11/17 04:11:51;;;;;;;16.15;8.02;;;;;;;4.34;82.07;96623.59;5069238;28;20040;-71
2021/11/17 04:14:30;;;;;;;18.42;9.05;;;;;;;4.31;82.21;96616.03;5069378;28;20057;-71
2021/11/17 04:17:18;;;;;;;18.42;8.90;;;;;;;4.34;82.69;96615.50;5069986;28;20044;-71
2021/11/17 04:19:55;;;;;;;16.23;8.93;;;;;;;4.41;82.77;96622.22;5069195;28;20051;-71
2021/11/17 04:22:44;;;;;;;17.98;8.68;;;;;;;4.41;82.25;96616.81;5069325;28;20047;-71
2021/11/17 04:25:26;;;;;;;18.42;9.63;;;;;;;4.42;82.77;96617.63;5068696;28;20060;-71
2021/11/17 04:28:07;;;;;;;20.40;9.70;;;;;;;4.35;82.48;96617.91;5069739;28;20052;-73
2021/11/17 04:31:20;;;;;;;20.15;9.13;;;;;;;4.32;83.46;96618.44;5089541;28;20929;-71
2021/11/17 04:34:16;;;;;;;19.95;10.07;;;;;;;4.35;83.45;96622.50;5089052;28;20032;-71
2021/11/17 04:37:00;;;;;;;17.60;9.15;;;;;;;4.33;83.50;96620.09;5069306;28;20086;-71
2021/11/17 04:39:46;;;;;;;23.45;9.70;;;;;;;4.36;83.59;96619.53;5069512;28;20609;-71
2021/11/17 04:42:41;;;;;;;19.02;10.55;;;;;;;4.40;83.66;96617.91;5067979;28;20055;-71
2021/11/17 04:45:28;;;;;;;21.33;10.05;;;;;;;4.42;83.75;96614.94;5067871;28;20052;-71
2021/11/17 04:48:08;;;;;;;19.48;10.25;;;;;;;4.44;83.29;96613.59;5069038;28;20053;-71
2021/11/17 04:51:01;;;;;;;20.30;10.35;;;;;;;4.44;83.61;96612.78;5068798;28;20059;-71
2021/11/17 04:53:47;;;;;;;20.48;9.77;;;;;;;4.44;83.73;96610.91;5068565;28;20049;-71
2021/11/17 04:56:27;;;;;;;19.33;9.73;;;;;;;4.45;83.81;96607.09;5066512;28;20511;-71
2021/11/17 04:59:25;;;;;;;20.75;9.95;;;;;;;4.44;84.13;96605.50;5069065;28;20060;-71
2021/11/17 05:02:12;;;;;;;20.52;10.30;;;;;;;4.47;84.20;96606.03;5065153;28;20052;-71
2021/11/17 05:04:51;;;;;;;20.50;9.88;;;;;;;4.48;84.08;96610.31;5068230;28;20094;-71
2021/11/17 05:07:30;;;;;;;18.80;9.38;;;;;;;4.41;83.73;96616.81;5068664;28;20048;-71
2021/11/17 05:10:07;;;;;;;18.65;9.35;;;;;;;4.44;84.46;96618.19;5068716;28;20056;-71
2021/11/17 05:12:46;;;;;;;21.30;9.80;;;;;;;4.47;84.39;96619.50;5085273;28;20486;-71
2021/11/17 05:15:24;;;;;;;21.25;9.93;;;;;;;4.52;83.98;96614.09;5088554;28;20044;-71
2021/11/17 05:17:58;;;;;;;22.77;10.10;;;;;;;4.56;83.96;96618.69;5088304;28;20044;-71
2021/11/17 05:20:37;;;;;;;22.95;10.43;;;;;;;4.64;83.66;96615.41;5088684;28;20044;-71
2021/11/17 05:23:21;;;;;;;18.48;9.60;;;;;;;4.67;83.44;96616.78;5088066;28;20063;-71
2021/11/17 05:25:53;;;;;;;;;;;;;;;4.69;83.45;96614.59;5089268;28;20052;-71
2021/11/17 05:28:44;;;;;;;20.25;9.88;;;;;;;4.69;83.67;96606.50;5088567;28;20672;-71
2021/11/17 05:31:25;;;;;;;19.20;9.55;;;;;;;4.70;83.40;96610.84;5085666;28;20059;-71
2021/11/17 05:34:11;;;;;;;20.67;10.68;;;;;;;4.74;83.39;96614.59;5088868;28;20044;-71
2021/11/17 05:36:46;;;;;;;22.45;10.48;;;;;;;4.75;83.34;96616.22;5087616;28;20044;-71
2021/11/17 05:39:28;;;;;;;21.42;10.18;;;;;;;4.74;82.90;96614.59;5086445;28;20044;-71
2021/11/17 05:42:10;;;;;;;22.08;10.38;;;;;;;4.71;83.25;96615.16;5088432;28;20048;-71
2021/11/17 05:44:49;;;;;;;21.27;10.27;;;;;;;4.69;83.02;96620.00;5067408;28;20547;-71
2021/11/17 05:47:30;;;;;;;21.30;10.73;;;;;;;4.71;83.62;96617.84;5068344;28;20055;-70
2021/11/17 05:50:11;;;;;;;22.30;10.52;;;;;;;4.69;83.63;96618.09;5067710;28;20064;-71
2021/11/17 05:52:54;;;;;;;21.17;10.13;;;;;;;4.72;84.02;96627.53;5067789;28;20037;-71
2021/11/17 05:55:43;;;;;;;23.83;10.52;;;;;;;4.65;84.00;96621.63;5067969;28;20068;-71
2021/11/17 05:58:29;;;;;;;22.83;10.35;;;;;;;4.59;84.35;96628.09;5067008;28;20071;-71
2021/11/17 06:01:15;;;;;;;24.42;11.23;;;;;;;4.52;84.95;96628.41;5067972;28;20063;-73
2021/11/17 06:03:54;;;;;;;22.83;10.32;;;;;;;4.47;85.03;96630.28;5067179;28;20056;-73
2021/11/17 06:06:23;;;;;;;23.02;10.27;;;;;;;4.51;85.56;96636.75;5066809;28;20106;-73
2021/11/17 06:08:49;;;;;;;22.00;9.95;;;;;;;4.51;85.05;96626.78;5067952;28;20056;-73
2021/11/17 06:11:19;;;;;;;21.27;10.63;;;;;;;4.44;85.15;96632.47;5066409;28;20067;-72
2021/11/17 06:13:46;;;;;;;24.42;11.43;;;;;;;4.45;85.37;96638.66;5068409;28;20048;-73
2021/11/17 06:16:12;;;;;;;26.13;10.65;;;;;;;4.50;85.60;96640.53;5066723;28;20040;-72
2021/11/17 06:18:43;;;;;;;22.65;10.45;;;;;;;4.51;85.86;96644.84;5067971;28;20640;-73
2021/11/17 06:21:11;;;;;;;22.20;10.55;;;;;;;4.52;85.24;96644.56;5065976;28;20048;-73
2021/11/17 06:23:45;;;;;;;21.10;10.30;;;;;;;4.48;85.97;96643.50;5066101;28;20403;-72
2021/11/17 06:26:13;;;;;;;21.77;9.82;;;;;;;4.44;86.27;96648.63;5067104;28;20076;-73
2021/11/17 06:28:41;;;;;;;22.33;10.60;;;;;;;4.45;86.39;96654.84;5066160;28;20036;-73
2021/11/17 06:31:08;;;;;;;21.67;10.25;;;;;;;4.49;86.91;96660.47;5066979;28;20144;-72
2021/11/17 06:33:34;;;;;;;23.60;10.70;;;;;;;4.54;86.64;96647.00;5066522;28;20052;-73
2021/11/17 06:36:01;;;;;;;21.27;9.95;;;;;;;4.54;86.09;96649.69;5068070;28;20044;-72
2021/11/17 06:38:27;;;;;;;23.05;10.02;;;;;;;4.50;86.14;96646.75;5066439;28;20077;-73
2021/11/17 06:40:54;;;;;;;21.00;10.82;;;;;;;4.53;86.40;96645.38;5068666;28;20085;-73
2021/11/17 06:43:21;;;;;;;23.80;10.88;;;;;;;4.58;86.59;96642.69;5086768;28;20051;-73
2021/11/17 06:45:52;;;;;;;21.60;10.75;;;;;;;4.59;86.30;96650.47;5087422;28;20047;-72
2021/11/17 06:48:20;;;;;;;25.63;10.80;;;;;;;4.61;86.41;96655.63;5087118;28;20052;-73
2021/11/17 06:50:48;;;;;;;24.45;10.88;;;;;;;4.64;86.22;96652.38;5086867;28;20128;-73
2021/11/17 06:53:15;;;;;;;26.27;10.50;;;;;;;4.64;85.98;96658.56;5087367;28;20044;-72
2021/11/17 06:55:42;;;;;;;22.38;10.57;;;;;;;4.56;86.20;96658.34;5086554;28;20059;-73
2021/11/17 06:58:09;;;;;;;23.67;10.98;;;;;;;4.61;86.74;96666.41;5087279;28;20492;-74
2021/11/17 07:00:39;;;;;;;25.08;10.77;;;;;;;4.60;86.91;96667.50;5086637;28;20048;-73
2021/11/17 07:03:08;;;;;;;23.25;10.55;;;;;;;4.62;87.06;96670.72;5087043;28;20576;-72
2021/11/17 07:05:34;;;;;;;23.45;10.68;;;;;;;4.58;86.62;96667.75;5087114;28;20044;-73
2021/11/17 07:08:03;;;;;;;23.98;11.23;;;;;;;4.55;87.06;96675.59;5087278;28;20052;-73
2021/11/17 07:10:31;;;;;;;24.83;10.85;;;;;;;4.54;87.37;96684.75;5107382;28;20490;-73
2021/11/17 07:12:58;;;;;;;24.13;11.32;;;;;;;4.55;87.29;96686.38;5086947;28;20048;-72
2021/11/17 07:15:27;;;;;;;23.63;11.23;;;;;;;4.53;87.50;96685.84;5088366;28;20060;-73
2021/11/17 07:17:54;;;;;;;21.30;10.05;;;;;;;4.53;87.90;96688.53;5090871;28;20056;-73
2021/11/17 07:20:22;;;;;;;27.30;11.00;;;;;;;4.44;87.77;96689.09;5091377;28;20044;-72
2021/11/17 07:22:49;;;;;;;30.00;11.65;;;;;;;4.42;88.14;96698.50;5090806;28;20051;-73
2021/11/17 07:25:17;;;;;;;23.15;11.10;;;;;;;4.39;88.74;96694.47;5091028;28;20650;-73
2021/11/17 07:27:44;;;;;;;24.45;11.30;;;;;;;4.39;88.92;96699.88;5091159;28;20052;-73
2021/11/17 07:30:13;;;;;;;26.27;11.82;;;;;;;4.39;89.28;96696.38;5090797;28;20047;-73
2021/11/17 07:32:39;;;;;;;27.27;12.10;;;;;;;4.43;89.44;96700.13;5090825;28;20040;-73
2021/11/17 07:35:08;;;;;;;26.42;11.93;;;;;;;4.41;89.18;96707.69;5090262;28;20055;-72
2021/11/17 07:37:36;;;;;;;26.42;11.90;;;;;;;4.39;89.13;96710.66;5091346;28;20054;-73
2021/11/17 07:40:04;;;;;;;23.73;11.10;;;;;;;4.33;89.52;96711.75;5089738;28;20055;-72
2021/11/17 07:42:31;;;;;;;26.77;11.43;;;;;;;4.32;89.50;96709.28;5090996;28;20051;-73
2021/11/17 07:44:57;;;;;;;25.42;11.70;;;;;;;4.34;89.82;96712.56;5089885;28;20529;-73
2021/11/17 07:47:24;;;;;;;28.88;11.32;;;;;;;4.35;89.67;96708.78;5090410;28;20046;-73
2021/11/17 07:49:51;;;;;;;26.65;11.73;;;;;;;4.35;89.53;96717.66;5090450;28;20043;-73
2021/11/17 07:52:18;;;;;;;26.50;12.02;;;;;;;4.33;89.61;96717.13;5090343;28;20064;-72
2021/11/17 07:54:45;;;;;;;28.00;10.98;;;;;;;4.38;90.05;96717.09;5090590;28;20059;-73
2021/11/17 07:57:12;;;;;;;28.08;12.25;;;;;;;4.44;89.85;96720.66;5089744;28;20063;-73
2021/11/17 07:59:41;;;;;;;25.50;12.05;;;;;;;4.43;89.44;96725.19;5090279;28;20495;-73
2021/11/17 08:02:10;;;;;;;26.25;12.25;;;;;;;4.46;89.59;96718.47;5089200;28;20063;-73
2021/11/17 08:04:38;;;;;;;24.40;11.52;;;;;;;4.48;88.87;96726.28;5090535;28;20066;-73
2021/11/17 08:07:06;;;;;;;23.75;10.95;;;;;;;4.52;88.86;96721.97;5089376;28;20056;-73
2021/11/17 08:09:33;;;;;;;26.75;11.18;;;;;;;4.54;89.15;96722.50;5090379;28;20067;-73
2021/11/17 08:12:01;;;;;;;22.60;11.23;;;;;;;4.61;89.09;96728.47;5090114;28;20056;-73
2021/11/17 08:14:28;;;;;;;28.13;11.95;;;;;;;4.67;89.00;96721.97;5090017;28;20040;-73
2021/11/17 08:16:54;;;;;;;27.33;12.65;;;;;;;4.71;88.84;96718.47;5089913;28;20052;-73
2021/11/17 08:19:21;;;;;;;26.95;11.65;;;;;;;4.78;88.41;96714.69;5089360;28;20055;-73
2021/11/17 08:21:47;;;;;;;24.75;10.80;;;;;;;4.86;88.65;96722.22;5090486;28;20680;-73
2021/11/17 08:24:14;;;;;;;24.42;11.60;;;;;;;4.91;87.55;96712.25;5088946;28;20071;-73
2021/11/17 08:26:40;;;;;;;26.10;10.75;;;;;;;4.95;87.55;96717.88;5090660;28;20048;-73
2021/11/17 08:29:09;;;;;;;25.35;11.43;;;;;;;4.98;87.23;96720.84;5089037;28;20052;-72
2021/11/17 08:31:36;;;;;;;26.40;11.60;;;;;;;5.06;87.11;96721.34;5090391;28;20040;-73
2021/11/17 08:34:02;;;;;;;25.20;11.27;;;;;;;5.10;87.32;96727.84;5088898;28;20094;-73
2021/11/17 08:36:29;;;;;;;22.52;11.10;;;;;;;5.21;87.03;96740.22;5090119;28;20044;-73
2021/11/17 08:38:56;;;;;;;22.80;10.80;;;;;;;5.29;86.13;96745.06;5089539;28;20051;-73
2021/11/17 08:41:25;;;;;;;20.98;10.32;;;;;;;5.33;85.08;96746.16;5089641;28;20291;-73
2021/11/17 08:43:52;;;;;;;19.73;10.63;;;;;;;5.42;85.86;96743.66;5090109;28;20131;-73
2021/11/17 08:46:20;;;;;;;23.73;11.52;;;;;;;5.47;85.36;96749.88;5089002;28;20052;-73
2021/11/17 08:48:46;;;;;;;22.95;11.68;;;;;;;5.56;85.66;96754.72;5089549;28;20566;-73
2021/11/17 08:51:17;;;;;;;22.80;11.32;;;;;;;5.61;85.21;96760.09;5088479;28;20071;-73
2021/11/17 08:53:45;;;;;;;20.35;10.15;;;;;;;5.68;83.07;96766.00;5089817;28;20464;-74
2021/11/17 08:56:12;;;;;;;20.15;10.85;;;;;;;5.66;82.40;96765.47;5088453;28;20478;-72
2021/11/17 08:58:41;;;;;;;22.13;11.10;;;;;;;5.67;82.68;96761.69;5089391;28;20048;-73
2021/11/17 09:01:09;;;;;;;18.42;10.57;;;;;;;5.60;82.34;96766.59;5088471;28;20054;-72
2021/11/17 09:03:37;;;;;;;19.48;10.13;;;;;;;5.56;82.68;96760.13;5089090;28;20052;-73
2021/11/17 09:06:05;;;;;;;20.83;10.52;;;;;;;5.59;83.53;96764.97;5089159;28;20450;-72
2021/11/17 09:08:33;;;;;;;20.38;11.32;;;;;;;5.59;83.41;96775.78;5088901;28;20071;-73
2021/11/17 09:11:02;;;;;;;20.75;11.15;;;;;;;5.64;83.67;96773.06;5089625;28;20522;-72
2021/11/17 09:13:30;;;;;;;20.52;10.75;;;;;;;5.72;83.78;96775.19;5088969;28;20046;-73
2021/11/17 09:15:58;;;;;;;19.85;10.60;;;;;;;5.76;83.20;96776.25;5089625;28;20048;-73
2021/11/17 09:18:28;;;;;;;18.38;9.52;;;;;;;5.85;82.74;96788.09;5088115;28;20051;-73
2021/11/17 09:20:57;;;;;;;21.08;9.95;;;;;;;5.89;82.78;96786.44;5089347;28;20040;-73
2021/11/17 09:23:27;;;;;;;18.98;10.15;;;;;;;5.94;80.94;96791.06;5088469;28;20056;-73
2021/11/17 09:25:53;;;;;;;16.48;9.38;;;;;;;5.95;80.45;96785.41;5088728;28;20048;-74
2021/11/17 09:28:21;;;;;;;18.02;9.43;;;;;;;5.95;80.77;96785.41;5088325;28;20055;-73
2021/11/17 09:30:48;;;;;;;19.90;9.20;;;;;;;5.99;80.79;96786.44;5088578;28;20047;-73
2021/11/17 09:33:15;;;;;;;16.85;9.23;;;;;;;5.98;79.85;96784.81;5089009;28;20044;-73
2021/11/17 09:35:43;;;;;;;17.75;8.30;;;;;;;5.89;79.90;96781.03;5088181;28;20048;-73
2021/11/17 09:38:12;;;;;;;23.73;9.82;;;;;;;5.94;80.54;96791.88;5088341;28;20052;-73
2021/11/17 09:40:44;;;;;;;16.83;9.07;;;;;;;5.87;80.21;96798.63;5088238;28;20097;-73
2021/11/17 09:43:13;;;;;;;16.50;8.68;;;;;;;5.77;80.30;96799.47;5067804;28;20053;-73
2021/11/17 09:45:42;;;;;;;17.80;9.55;;;;;;;5.68;81.46;96791.13;5068101;28;20052;-73
2021/11/17 09:48:11;;;;;;;18.85;10.10;;;;;;;5.60;82.40;96799.81;5067766;28;20079;-73
2021/11/17 09:50:44;;;;;;;19.63;10.60;;;;;;;5.52;83.39;96796.84;5068023;28;20045;-73
2021/11/17 09:53:18;;;;;;;19.73;9.55;;;;;;;5.52;83.92;96807.66;5067186;28;20056;-72
2021/11/17 09:55:48;;;;;;;20.70;10.45;;;;;;;5.53;83.57;96793.06;5068329;28;20497;-73
2021/11/17 09:58:21;;;;;;;18.42;9.55;;;;;;;5.53;83.38;96790.38;5067007;28;20049;-73
2021/11/17 10:00:51;;;;;;;18.88;10.05;;;;;;;5.46;83.14;96783.38;5067860;28;20507;-73
2021/11/17 10:03:23;;;;;;;18.00;9.20;;;;;;;5.44;82.95;96785.53;5066989;28;20070;-73
2021/11/17 10:09:26;;;;;;;19.05;10.07;;;;;;;5.49;82.88;96812.53;5037068;28;20045;-73
2021/11/17 10:14:53;;;;;;;18.30;8.77;;;;;;;5.59;83.15;96814.41;5051786;28;20415;-73
2021/11/17 10:17:35;;;;;;;17.15;9.15;;;;;;;5.67;83.15;96805.72;5067566;28;20068;-73
2021/11/17 10:20:19;;;;;;;16.77;8.27;;;;;;;5.75;83.31;96815.16;5066737;28;20049;-73
2021/11/17 10:22:48;;;;;;;16.02;7.97;;;;;;;5.82;81.99;96817.56;5066905;28;20429;-73
2021/11/17 10:25:18;;;;;;;13.25;7.50;;;;;;;5.83;81.48;96813.78;5066455;28;20052;-73
2021/11/17 10:27:53;;;;;;;15.20;8.02;;;;;;;5.87;81.72;96812.97;5067741;28;20044;-73
2021/11/17 10:30:30;;;;;;;13.43;6.93;;;;;;;5.88;80.15;96811.88;5066896;28;20051;-73
2021/11/17 10:33:08;;;;;;;12.15;6.85;;;;;;;5.90;79.76;96804.31;5067183;28;20547;-73
2021/11/17 10:35:42;;;;;;;14.07;7.00;;;;;;;5.85;79.19;96798.91;5068148;28;20067;-73
2021/11/17 10:38:11;;;;;;;12.85;6.82;;;;;;;5.85;79.53;96804.31;5066426;28;20052;-72
2021/11/17 10:40:47;;;;;;;13.77;7.05;;;;;;;5.82;79.97;96796.75;5067724;28;20792;-73
2021/11/17 10:43:18;;;;;;;17.27;6.93;;;;;;;5.80;79.72;96788.13;5046505;28;20071;-73
2021/11/17 10:46:05;;;;;;;15.20;7.43;;;;;;;5.83;80.70;96801.06;5047547;28;20048;-73
2021/11/17 10:48:35;;;;;;;14.20;7.07;;;;;;;5.84;80.33;96791.06;5054581;28;20033;-72
2021/11/17 10:51:15;;;;;;;12.25;6.57;;;;;;;5.81;79.37;96794.34;5046248;28;20041;-70
2021/11/17 10:53:42;;;;;;;12.43;6.57;;;;;;;5.83;79.95;96786.75;5047722;28;20052;-73
2021/11/17 10:56:13;;;;;;;13.43;7.05;;;;;;;5.88;79.51;96784.84;5046480;28;20049;-72
2021/11/17 10:58:46;;;;;;;11.82;6.43;;;;;;;5.88;78.11;96784.84;5047087;28;20055;-73
2021/11/17 11:01:30;;;;;;;15.27;6.43;;;;;;;5.79;78.20;96786.50;5046530;28;20511;-73
2021/11/17 11:03:59;;;;;;;11.82;6.15;;;;;;;5.71;78.34;96781.69;5046769;28;20048;-73
2021/11/17 11:06:30;;;;;;;12.52;6.07;;;;;;;5.68;79.36;96782.22;5047034;28;20408;-73
2021/11/17 11:09:02;;;;;;;18.02;7.25;;;;;;;5.75;79.88;96780.84;5046704;28;20052;-73
2021/11/17 11:11:32;;;;;;;12.75;6.78;;;;;;;5.86;78.77;96791.63;5054650;28;20525;-73
2021/11/17 11:14:01;;;;;;;15.18;7.88;;;;;;;5.93;78.61;96787.53;5066761;28;20068;-73
2021/11/17 11:16:36;;;;;;;13.32;7.65;;;;;;;6.00;78.70;96777.25;5067354;28;20044;-73
2021/11/17 11:19:32;;;;;;;12.30;6.95;;;;;;;6.09;78.05;96774.75;5066573;28;20049;-72
2021/11/17 11:22:13;;;;;;;21.02;7.72;;;;;;;6.07;78.55;96776.16;5066466;28;20511;-73
2021/11/17 11:24:42;;;;;;;14.77;7.70;;;;;;;6.05;78.14;96781.00;5067181;28;20559;-73
2021/11/17 11:27:23;;;;;;;11.57;6.65;;;;;;;6.03;77.76;96786.69;5064669;28;20102;-73
2021/11/17 11:29:51;;;;;;;11.45;6.47;;;;;;;6.00;77.42;96785.38;5067008;28;20113;-73
2021/11/17 11:32:52;;;;;;;10.80;6.07;;;;;;;5.92;77.74;96783.22;5065540;28;20059;-73
2021/11/17 11:35:24;;;;;;;13.68;6.07;;;;;;;5.97;78.33;96783.22;5062575;28;20223;-72
2021/11/17 11:38:08;;;;;;;11.27;5.90;;;;;;;5.99;77.38;96781.03;5066943;28;20045;-73
2021/11/17 11:41:12;;;;;;;9.68;5.28;;;;;;;5.98;76.14;96768.59;5065949;28;20056;-72
2021/11/17 11:43:41;;;;;;;;;;;;;;;5.97;77.00;96777.81;5053351;28;20045;-73
2021/11/17 11:46:26;;;;;;;13.52;5.90;;;;;;;5.98;77.09;96768.59;5046343;28;19925;-72
2021/11/17 11:48:59;;;;;;;8.82;4.97;;;;;;;5.96;77.55;96768.09;5046102;28;20052;-73
2021/11/17 11:51:45;;;;;;;;;;;;;;;5.97;77.49;96767.00;5046720;28;20051;-73
2021/11/17 11:54:16;;;;;;;12.50;6.60;;;;;;;5.81;77.75;96770.81;5045844;28;20305;-73
2021/11/17 11:56:48;;;;;;;10.45;6.10;;;;;;;5.88;76.66;96763.22;5046452;28;20045;-72
2021/11/17 11:59:19;;;;;;;12.98;6.70;;;;;;;5.91;76.90;96773.50;5045973;28;20826;-73
2021/11/17 12:01:46;;;;;;;18.65;7.00;;;;;;;5.95;76.40;96769.19;5048120;28;20049;-73
2021/11/17 12:04:17;;;;;;;12.40;6.72;;;;;;;6.02;76.52;96768.88;5049835;28;20053;-73
2021/11/17 12:06:48;;;;;;;12.30;6.82;;;;;;;6.13;76.30;96777.72;5049438;28;20052;-73
2021/11/17 12:09:22;;;;;;;13.63;5.93;;;;;;;6.18;76.25;96772.28;5050036;28;20051;-74
2021/11/17 12:11:52;;;;;;;9.30;5.80;;;;;;;6.23;74.89;96774.97;5059784;28;20102;-73
2021/11/17 12:14:48;;;;;;;11.45;5.88;;;;;;;6.23;74.24;96769.56;5069500;28;20049;-73
2021/11/17 12:17:20;;;;;;;13.63;5.68;;;;;;;6.24;74.93;96777.38;5060386;28;20051;-72
2021/11/17 12:19:51;;;;;;;9.43;5.75;;;;;;;6.26;74.30;96785.22;5069006;28;20068;-73
2021/11/17 12:22:21;;;;;;;9.15;4.90;;;;;;;6.30;74.70;96782.75;5069797;28;20588;-73
2021/11/17 12:24:51;;;;;;;8.13;4.47;;;;;;;6.30;75.42;96786.28;5069053;28;20048;-73
2021/11/17 12:27:21;;;;;;;7.95;4.32;;;;;;;6.34;73.50;96787.34;5069776;28;20434;-72
2021/11/17 12:29:54;;;;;;;6.95;4.22;;;;;;;6.33;73.51;96791.13;5069320;28;20068;-73
2021/11/17 12:32:27;;;;;;;6.47;4.50;;;;;;;6.27;74.06;96792.25;5069113;28;20049;-73
2021/11/17 12:35:00;;;;;;;6.60;4.10;;;;;;;6.33;73.79;96795.75;5069969;28;20423;-73
2021/11/17 12:37:30;;;;;;;7.07;4.15;;;;;;;6.38;72.94;96790.28;5068957;28;20467;-73
2021/11/17 12:39:59;;;;;;;5.38;3.88;;;;;;;6.39;73.02;96787.31;5070088;28;20052;-73
2021/11/17 12:42:30;;;;;;;10.50;4.38;;;;;;;6.39;73.57;96787.31;5068863;28;20052;-73
2021/11/17 12:45:00;;;;;;;8.23;4.90;;;;;;;6.37;74.03;96781.38;5070183;28;20132;-73
2021/11/17 12:47:32;;;;;;;11.32;5.55;;;;;;;6.37;73.59;96789.50;5068853;28;20052;-73
2021/11/17 12:50:04;;;;;;;8.73;4.35;;;;;;;6.37;72.71;96794.06;5069661;28;20048;-73
2021/11/17 12:52:35;;;;;;;6.93;4.53;;;;;;;6.40;72.47;96785.41;5068887;28;20054;-73
2021/11/17 12:55:08;;;;;;;8.48;4.13;;;;;;;6.39;72.57;96784.59;5068650;28;20056;-71
2021/11/17 12:57:40;;;;;;;7.50;5.00;;;;;;;6.35;73.03;96788.94;5069058;28;20048;-73
2021/11/17 13:00:49;;;;;;;9.50;4.75;;;;;;;6.34;73.17;96781.94;5067696;28;20049;-72
2021/11/17 13:03:32;;;;;;;9.73;4.65;;;;;;;6.34;73.92;96778.41;5032033;28;20092;-72
2021/11/17 13:06:06;;;;;;;5.03;3.40;;;;;;;6.37;73.27;96775.97;5069200;28;20048;-73
2021/11/17 13:08:34;;;;;;;7.15;4.45;;;;;;;6.37;72.89;96780.53;5087337;28;20055;-72
2021/11/17 13:11:11;;;;;;;9.73;4.97;;;;;;;6.32;73.06;96778.69;5087214;28;20063;-73
2021/11/17 13:13:45;;;;;;;8.25;4.60;;;;;;;6.31;73.69;96792.50;5067310;28;20040;-73
2021/11/17 13:16:14;;;;;;;10.00;5.28;;;;;;;6.32;73.81;96784.13;5068656;28;20056;-72
2021/11/17 13:18:55;;;;;;;9.38;5.55;;;;;;;6.41;73.43;96782.41;5068637;28;20040;-72
2021/11/17 13:21:50;;;;;;;9.18;5.40;;;;;;;6.49;73.67;96795.34;5068095;28;20048;-73
2021/11/17 13:24:44;;;;;;;8.32;4.75;;;;;;;6.51;71.57;96790.47;5068001;28;20143;-73
2021/11/17 13:27:20;;;;;;;7.03;4.72;;;;;;;6.50;71.75;96791.56;5054432;28;20063;-72
2021/11/17 13:29:52;;;;;;;7.78;4.57;;;;;;;6.48;72.07;96788.34;5073501;28;20047;-73
2021/11/17 13:32:34;;;;;;;7.75;5.07;;;;;;;6.49;72.34;96795.34;5088076;28;20063;-73
2021/11/17 13:35:27;;;;;;;7.90;5.03;;;;;;;6.48;71.96;96782.94;5089277;28;20055;-73
2021/11/17 13:38:10;;;;;;;7.47;4.63;;;;;;;6.47;72.67;96791.28;5088979;28;20478;-73
2021/11/17 13:40:37;;;;;;;;;;;;;;;6.38;72.08;96788.41;5067982;28;20051;-72
2021/11/17 13:43:03;;;;;;;7.13;4.47;;;;;;;6.27;72.88;96792.25;5068513;28;19931;-72
2021/11/17 13:45:31;;;;;;;6.43;4.07;;;;;;;6.25;72.79;96797.91;5068104;28;20059;-72
2021/11/17 13:47:58;;;;;;;7.40;4.93;;;;;;;6.24;72.68;96798.22;5068032;28;20369;-73
2021/11/17 13:50:30;;;;;;;8.07;4.20;;;;;;;6.20;73.00;96797.16;5067482;28;20047;-73
2021/11/17 13:52:58;;;;;;;14.23;4.60;;;;;;;6.22;73.41;96805.81;5067812;28;20060;-73
2021/11/17 13:55:28;;;;;;;9.05;4.88;;;;;;;6.20;73.80;96806.06;5068073;28;20068;-72
2021/11/17 13:57:55;;;;;;;11.85;4.13;;;;;;;6.19;74.30;96800.94;5067176;28;20058;-73
2021/11/17 14:00:24;;;;;;;6.80;4.32;;;;;;;6.23;73.29;96810.94;5068063;28;20060;-72
2021/11/17 14:02:50;;;;;;;7.13;3.72;;;;;;;6.22;72.99;96805.81;5067311;28;20503;-73
2021/11/17 14:05:19;;;;;;;9.82;4.30;;;;;;;6.20;73.90;96802.56;5067752;28;20216;-72
2021/11/17 14:07:48;;;;;;;7.25;4.40;;;;;;;6.20;74.23;96803.34;5067889;28;20060;-73
2021/11/17 14:10:17;;;;;;;8.70;4.57;;;;;;;6.28;74.65;96807.38;5067023;28;20063;-73
2021/11/17 14:12:44;;;;;;;12.35;4.50;;;;;;;6.36;74.67;96806.78;5067658;28;20251;-73
2021/11/17 14:15:12;;;;;;;12.88;6.25;;;;;;;6.42;74.21;96811.09;5067325;28;20056;-73
2021/11/17 14:17:39;;;;;;;8.95;4.57;;;;;;;6.46;74.16;96809.44;5068105;28;20053;-73
2021/11/17 14:20:07;;;;;;;7.15;4.50;;;;;;;6.48;74.52;96820.00;5066654;28;20056;-72
2021/11/17 14:22:34;;;;;;;8.10;4.40;;;;;;;6.49;73.40;96814.28;5068165;28;20048;-73
2021/11/17 14:25:07;;;;;;;11.10;4.70;;;;;;;6.48;73.04;96815.38;5066873;28;20106;-73
2021/11/17 14:27:37;;;;;;;9.45;5.22;;;;;;;6.50;73.52;96818.59;5067816;28;20563;-73
2021/11/17 14:30:08;;;;;;;7.63;4.07;;;;;;;6.52;73.00;96818.31;5067165;28;20049;-72
2021/11/17 14:32:38;;;;;;;8.98;4.22;;;;;;;6.50;72.76;96823.22;5067261;28;20060;-72
2021/11/17 14:35:06;;;;;;;7.10;3.90;;;;;;;6.47;73.39;96816.47;5067119;28;20048;-73
2021/11/17 14:37:33;;;;;;;8.65;4.40;;;;;;;6.49;73.76;96824.31;5067689;28;20706;-73
2021/11/17 14:40:01;;;;;;;7.68;3.97;;;;;;;6.48;73.49;96825.41;5067948;28;20068;-73
2021/11/17 14:42:28;;;;;;;7.53;3.97;;;;;;;6.44;73.37;96825.16;5086763;28;20044;-72